Shady Cove, Oregon
Current Conditions -  °F | °C
As of 10:53 AM on Tuesday 21 Oct 2014 (Local Time) from KMFR Reporting Station
Overcast Overcast  
Wind Chill: 55°   Ceiling: 5500
Heat Index: 55°   Visibility: 10mi
Dew Point: 47°   Wind: 3mph
Humidity: 74%   Direction: 360°N
Pressure: 30.11"   Gusts: NA
Location:  42.61°N, 122.81°W
Report Text: KMFR 211753Z 36003KT 10SM SCT009 OVC055 13/08 A3011 RMK AO2 SLP196 60000 T01280083 10128 20083 51009
Loading
Personal Weather Stations






























Interactive Weather Map
Tropical Storm Tracking
New forecast layout! Learn more

10-Day Weather Forecast

Advertisements
Track Severe Weather on mobile